Portada
METAR-TAF:

METAR-TAF

Aeroports :

Bellaire, Michigan, Estats Units d'Amèrica

latitud: 44-59-18N, longitud: 085-11-54W, altitud: 190 m

Observació

L'informe es va fer fa 10 minuts, a les 06:56 UTC
Vent 3 kt del Oest/Sud-Oest
Temperatura 3°C
Humitat 93%
Pressió 1006 hPa
Visibilitat: 3.2 km
Cel cobert a una alçada de 400 ft
neu

METAR: KACB 300656Z AUTO 24003KT 2SM -SN OVC004 03/02 A2972 RMK AO2 T00330023

Hora: 03:06 (07:06 UTC)


TAF: manca

Observacions i pronòstics meteorològics de més de 4000 aeroports (METAR i TAF).

Les estacions disponibles són els punts grocs i vermells al mapa.

Posi el ratolí al punt desitjat per veure el nom de l'estació.

Feu clic per veure les observacions i els pronòstics meteorològics.

Per canviar el mapa: feu clic els botons verds amb una creu de color negre per apropar; al botó verd amb un guió per allunyar la imatge; o en les fletxes verdes per a mapes adjacents.


METAR-TAF: